createdAt,value
2018-11-25T00:02:37.230Z,64.10
2018-11-25T00:07:19.588Z,56.63
2018-11-25T00:11:59.962Z,56.87
2018-11-25T00:16:40.566Z,123.93
2018-11-25T00:21:21.231Z,106.90
2018-11-25T00:26:01.663Z,61.80
2018-11-25T00:30:41.994Z,62.50
2018-11-25T00:35:22.508Z,64.93
2018-11-25T00:40:02.858Z,51.40
2018-11-25T00:44:43.338Z,54.57
2018-11-25T00:49:23.398Z,41.00
2018-11-25T00:54:04.760Z,45.03
2018-11-25T00:58:44.948Z,53.33
2018-11-25T01:03:25.348Z,53.80
2018-11-25T01:08:06.466Z,37.13
2018-11-25T01:12:46.983Z,35.80
2018-11-25T01:17:27.540Z,40.23
2018-11-25T01:22:09.509Z,44.83
2018-11-25T01:26:51.055Z,45.13
2018-11-25T01:31:31.139Z,36.80
2018-11-25T01:36:11.262Z,35.83
2018-11-25T01:40:51.288Z,28.97
2018-11-25T01:45:32.364Z,61.07
2018-11-25T01:50:14.639Z,35.97
2018-11-25T01:54:56.593Z,30.00
2018-11-25T01:59:36.556Z,25.73
2018-11-25T02:04:16.966Z,23.00
2018-11-25T02:08:57.968Z,22.97
2018-11-25T02:13:38.407Z,28.63
2018-11-25T02:18:19.047Z,26.27
2018-11-25T02:22:59.907Z,31.23
2018-11-25T02:27:39.866Z,84.17
2018-11-25T02:32:21.511Z,128.73
2018-11-25T02:37:02.200Z,39.60
2018-11-25T02:41:42.672Z,35.57
2018-11-25T02:46:23.285Z,31.23
2018-11-25T02:51:04.151Z,52.90
2018-11-25T02:55:44.015Z,72.50
2018-11-25T03:00:23.993Z,51.63
2018-11-25T03:05:03.874Z,82.17
2018-11-25T03:09:44.745Z,27.67
2018-11-25T03:14:26.240Z,29.77
2018-11-25T03:19:07.947Z,47.13
2018-11-25T03:23:47.844Z,37.73
2018-11-25T03:28:28.348Z,30.37
2018-11-25T03:33:08.943Z,26.40
2018-11-25T03:37:49.464Z,33.20
2018-11-25T03:42:30.519Z,22.90
2018-11-25T03:47:12.062Z,24.97
2018-11-25T03:51:52.512Z,22.20
2018-11-25T03:56:32.881Z,21.57
2018-11-25T04:01:13.078Z,26.37
2018-11-25T04:05:53.530Z,28.17
2018-11-25T04:10:33.812Z,28.43
2018-11-25T04:15:15.958Z,27.83
2018-11-25T04:19:55.983Z,28.43
2018-11-25T04:24:36.271Z,27.50
2018-11-25T04:29:16.351Z,24.60
2018-11-25T04:33:57.531Z,23.03
2018-11-25T04:38:40.438Z,23.80
2018-11-25T04:43:20.808Z,27.03
2018-11-25T04:48:00.807Z,24.30
2018-11-25T04:52:41.302Z,23.80
2018-11-25T04:57:21.631Z,35.43
2018-11-25T05:02:02.791Z,41.87
2018-11-25T05:06:43.440Z,50.93
2018-11-25T05:11:24.651Z,57.40
2018-11-25T05:16:04.927Z,51.70
2018-11-25T05:20:45.092Z,49.43
2018-11-25T05:25:25.051Z,40.30
2018-11-25T05:30:06.939Z,46.63
2018-11-25T05:34:47.503Z,36.27
2018-11-25T05:39:27.398Z,51.43
2018-11-25T05:44:08.990Z,45.70
2018-11-25T05:48:48.769Z,44.13
2018-11-25T05:53:29.585Z,34.97
2018-11-25T05:58:09.854Z,41.97
2018-11-25T06:02:51.101Z,92.03
2018-11-25T06:07:31.463Z,42.97
2018-11-25T06:12:11.839Z,43.90
2018-11-25T06:16:52.304Z,38.83
2018-11-25T06:21:32.529Z,46.47
2018-11-25T06:26:13.166Z,63.00
2018-11-25T06:30:53.736Z,49.83
2018-11-25T06:35:34.030Z,46.70
2018-11-25T06:40:15.959Z,44.13
2018-11-25T06:44:56.589Z,54.57
2018-11-25T06:49:37.625Z,40.67
2018-11-25T06:54:18.461Z,63.97
2018-11-25T06:58:59.066Z,41.20
2018-11-25T07:03:39.123Z,46.80
2018-11-25T07:08:20.057Z,37.50
2018-11-25T07:13:00.208Z,45.53
2018-11-25T07:17:41.263Z,39.87
2018-11-25T07:22:21.881Z,36.33
2018-11-25T07:27:02.415Z,36.17
2018-11-25T07:31:43.099Z,38.57
2018-11-25T07:36:23.444Z,46.93
2018-11-25T07:41:03.529Z,48.63
2018-11-25T07:45:44.175Z,46.50
2018-11-25T07:50:24.436Z,57.53
2018-11-25T07:55:05.599Z,52.90
2018-11-25T07:59:46.793Z,53.67
2018-11-25T08:04:29.963Z,68.33
2018-11-25T08:09:10.976Z,63.07
2018-11-25T08:13:50.843Z,61.97
2018-11-25T08:18:30.811Z,60.97
2018-11-25T08:23:11.197Z,54.47
2018-11-25T08:27:52.131Z,45.23
2018-11-25T08:32:32.073Z,47.43
2018-11-25T08:37:12.300Z,42.57
2018-11-25T08:41:53.773Z,45.23
2018-11-25T08:46:33.839Z,47.60
2018-11-25T08:51:14.158Z,53.37
2018-11-25T08:55:54.218Z,53.23
2018-11-25T09:00:34.175Z,41.00
2018-11-25T09:05:15.399Z,36.37
2018-11-25T09:09:55.193Z,35.27
2018-11-25T09:14:35.663Z,35.90
2018-11-25T09:19:15.736Z,38.80
2018-11-25T09:23:55.905Z,40.37
2018-11-25T09:28:36.010Z,35.23
2018-11-25T09:33:16.340Z,32.50
2018-11-25T09:37:56.968Z,27.17
2018-11-25T09:42:37.275Z,32.93
2018-11-25T09:47:20.061Z,122.63
2018-11-25T09:52:00.564Z,36.27
2018-11-25T09:56:40.761Z,33.83
2018-11-25T10:01:21.975Z,32.57
2018-11-25T10:06:02.890Z,30.80
2018-11-25T10:10:42.991Z,23.47
2018-11-25T10:15:25.064Z,23.40
2018-11-25T10:20:08.355Z,28.98
2018-11-25T10:24:48.439Z,23.30
2018-11-25T10:29:29.104Z,23.02
2018-11-25T10:34:09.011Z,22.77
2018-11-25T10:38:49.759Z,19.40
2018-11-25T10:43:29.755Z,21.60
2018-11-25T10:48:09.742Z,19.42
2018-11-25T10:52:50.566Z,16.02
2018-11-25T10:57:30.603Z,18.70
2018-11-25T11:02:15.707Z,17.37
2018-11-25T11:07:02.361Z,13.88
2018-11-25T11:11:42.520Z,11.80
2018-11-25T11:16:22.683Z,12.23
2018-11-25T11:21:03.170Z,13.75
2018-11-25T11:25:44.003Z,12.15
2018-11-25T11:30:24.266Z,10.88
2018-11-25T11:35:04.418Z,12.23
2018-11-25T11:39:44.271Z,12.53
2018-11-25T11:44:25.179Z,11.12
2018-11-25T11:49:05.179Z,12.93
2018-11-25T11:53:45.220Z,9.13
2018-11-25T11:58:25.185Z,9.73
2018-11-25T12:03:05.370Z,10.30
2018-11-25T12:07:45.883Z,9.53
2018-11-25T12:12:26.315Z,10.78
2018-11-25T12:17:06.508Z,9.75
2018-11-25T12:21:46.738Z,14.40
2018-11-25T12:26:27.031Z,13.93
2018-11-25T12:31:07.134Z,9.65
2018-11-25T12:35:47.131Z,9.08
2018-11-25T12:40:27.235Z,8.28
2018-11-25T12:45:09.755Z,9.65
2018-11-25T12:49:49.736Z,9.38
2018-11-25T12:54:29.920Z,9.33
2018-11-25T12:59:10.696Z,9.00
2018-11-25T13:03:50.866Z,10.83
2018-11-25T13:08:31.455Z,9.05
2018-11-25T13:13:11.977Z,8.18
2018-11-25T13:17:51.875Z,9.65
2018-11-25T13:22:32.571Z,9.48
2018-11-25T13:27:12.731Z,8.58
2018-11-25T13:31:52.803Z,8.80
2018-11-25T13:36:32.733Z,9.65
2018-11-25T13:41:12.781Z,8.60
2018-11-25T13:45:53.149Z,9.65
2018-11-25T13:50:33.312Z,8.50
2018-11-25T13:55:28.740Z,10.93
2018-11-25T14:01:17.141Z,9.10
2018-11-25T14:05:57.859Z,12.68
2018-11-25T14:10:38.254Z,10.13
2018-11-25T14:15:18.540Z,8.70
2018-11-25T14:19:59.504Z,9.40
2018-11-25T14:24:40.809Z,9.00
2018-11-25T14:29:21.287Z,10.65
2018-11-25T14:34:01.485Z,10.78
2018-11-25T14:38:42.363Z,11.38
2018-11-25T14:43:23.115Z,12.78
2018-11-25T14:48:03.447Z,14.05
2018-11-25T14:52:44.538Z,14.18
2018-11-25T14:57:24.670Z,14.35
2018-11-25T15:02:05.764Z,12.68
2018-11-25T15:06:46.796Z,14.40
2018-11-25T15:11:26.923Z,14.33
2018-11-25T15:16:09.328Z,18.02
2018-11-25T15:20:49.509Z,21.68
2018-11-25T15:25:32.740Z,20.72
2018-11-25T15:30:14.123Z,18.55
2018-11-25T15:34:54.546Z,21.47
2018-11-25T15:39:34.825Z,19.57
2018-11-25T15:44:14.715Z,21.37
2018-11-25T15:48:55.429Z,21.33
2018-11-25T15:53:35.728Z,20.88
2018-11-25T15:58:16.565Z,22.45
2018-11-25T16:02:56.676Z,21.95
2018-11-25T16:07:37.275Z,47.70
2018-11-25T16:12:18.103Z,45.27
2018-11-25T16:16:58.190Z,43.50
2018-11-25T16:21:38.090Z,38.27
2018-11-25T16:26:23.135Z,39.40
2018-11-25T16:31:03.711Z,40.53
2018-11-25T16:35:43.696Z,30.80
2018-11-25T16:40:24.233Z,30.67
2018-11-25T16:45:04.584Z,41.83
2018-11-25T16:49:44.606Z,25.90
2018-11-25T16:54:24.767Z,28.87
2018-11-25T16:59:05.972Z,28.43
2018-11-25T17:03:46.683Z,29.83
2018-11-25T17:08:42.096Z,37.10
2018-11-25T17:13:21.941Z,55.23
2018-11-25T17:18:03.537Z,32.67
2018-11-25T17:22:43.828Z,41.57
2018-11-25T17:27:24.676Z,44.03
2018-11-25T17:32:05.399Z,57.23
2018-11-25T17:36:45.705Z,42.47
2018-11-25T17:41:26.365Z,38.13
2018-11-25T17:46:06.316Z,38.93
2018-11-25T17:50:46.547Z,35.87
2018-11-25T17:55:29.303Z,35.70
2018-11-25T18:00:34.152Z,35.33
2018-11-25T18:05:14.324Z,35.70
2018-11-25T18:09:54.339Z,38.67
2018-11-25T18:14:34.263Z,36.40
2018-11-25T18:19:23.368Z,42.20
2018-11-25T18:24:03.426Z,35.40
2018-11-25T18:28:43.490Z,36.10
2018-11-25T18:33:23.615Z,36.17
2018-11-25T18:38:03.919Z,34.50
2018-11-25T18:42:44.167Z,36.10
2018-11-25T18:47:25.045Z,35.67
2018-11-25T18:52:05.556Z,37.73
2018-11-25T18:56:45.294Z,36.30
2018-11-25T19:02:32.921Z,37.17
2018-11-25T19:07:16.712Z,39.87
2018-11-25T19:11:57.024Z,37.97
2018-11-25T19:16:37.667Z,40.63
2018-11-25T19:21:17.133Z,38.33
2018-11-25T19:25:57.131Z,36.90
2018-11-25T19:30:37.503Z,38.20
2018-11-25T19:35:18.719Z,38.70
2018-11-25T19:39:58.718Z,40.50
2018-11-25T19:44:38.690Z,37.30
2018-11-25T19:49:18.771Z,36.97
2018-11-25T19:53:58.803Z,35.50
2018-11-25T19:58:38.792Z,34.80
2018-11-25T20:03:19.271Z,32.60
2018-11-25T20:07:59.379Z,33.73
2018-11-25T20:12:43.336Z,32.97
2018-11-25T20:17:29.483Z,32.10
2018-11-25T20:22:15.461Z,30.80
2018-11-25T20:27:00.784Z,31.20
2018-11-25T20:31:40.734Z,33.07
2018-11-25T20:36:20.764Z,32.53
2018-11-25T20:41:00.837Z,27.27
2018-11-25T20:45:46.120Z,28.17
2018-11-25T20:50:26.768Z,29.63
2018-11-25T20:55:07.448Z,31.17
2018-11-25T20:59:47.421Z,28.90
2018-11-25T21:04:27.821Z,28.67
2018-11-25T21:09:10.007Z,29.97
2018-11-25T21:13:49.852Z,29.60
2018-11-25T21:18:29.824Z,31.87
2018-11-25T21:23:09.757Z,29.90
2018-11-25T21:27:50.295Z,29.93
2018-11-25T21:32:30.140Z,36.13
2018-11-25T21:37:10.123Z,31.20
2018-11-25T21:41:50.383Z,31.87
2018-11-25T21:46:31.996Z,32.50
2018-11-25T21:51:12.340Z,30.20
2018-11-25T21:55:52.635Z,30.63
2018-11-25T22:00:32.712Z,31.63
2018-11-25T22:05:13.465Z,30.63
2018-11-25T22:09:54.126Z,34.50
2018-11-25T22:14:34.193Z,33.10
2018-11-25T22:19:14.329Z,32.53
2018-11-25T22:23:55.159Z,34.40
2018-11-25T22:28:35.510Z,31.60
2018-11-25T22:33:16.103Z,31.57
2018-11-25T22:37:56.268Z,31.37
2018-11-25T22:42:36.284Z,31.73
2018-11-25T22:47:16.387Z,31.57
2018-11-25T22:51:57.054Z,33.20
2018-11-25T22:56:37.361Z,33.00
2018-11-25T23:01:18.206Z,29.67
2018-11-25T23:06:11.976Z,32.50
2018-11-25T23:10:52.547Z,32.97
2018-11-25T23:15:33.054Z,34.57
2018-11-25T23:20:13.486Z,31.80
2018-11-25T23:24:53.717Z,32.03
2018-11-25T23:29:33.907Z,33.00
2018-11-25T23:34:13.975Z,34.67
2018-11-25T23:38:54.153Z,32.50
2018-11-25T23:43:34.079Z,33.00
2018-11-25T23:48:15.123Z,31.23
2018-11-25T23:52:55.331Z,30.67
2018-11-25T23:57:36.430Z,33.50
